KPCD/PCD METAR and TAF weather

Enter ICAO airport designator
Station Type Date Time Source
KPCD METAR 2020/04/04 20:55 UTC NOAA

KPCD 042055Z AUTO 33008KT 280V340 10SM OVC015 07/03 A3011 RMK AO2 T00660031


Station Type Date Time Source
KPCD Decoded METAR 2020/04/04 20:55 UTC NOAA

Station name not available
Apr 04, 2020 - 04:55 PM EDT / 2020.04.04 2055 UTC
Wind: from the NNW (330 degrees) at 9 MPH (8 KT) (direction variable):0
Visibility: 10 mile(s):0
Sky conditions: overcast
Temperature: 43.9 F (6.6 C)
Dew Point: 37.6 F (3.1 C)
Relative Humidity: 78%
Pressure (altimeter): 30.11 in. Hg (1019 hPa)
ob: KPCD 042055Z AUTO 33008KT 280V340 10SM OVC015 07/03 A3011 RMK AO2 T00660031
cycle: 21

Station Type Date Time Source
KPCD TAF UTC NOAA

Error!

Example: see airport list